createdAt,value
2023-02-17T00:01:33.320Z,103.47
2023-02-17T00:04:01.505Z,109.43
2023-02-17T00:06:32.275Z,97.57
2023-02-17T00:09:00.545Z,100.22
2023-02-17T00:11:29.176Z,106.63
2023-02-17T00:13:57.042Z,107.13
2023-02-17T00:16:26.943Z,101.82
2023-02-17T00:19:26.031Z,108.38
2023-02-17T00:22:00.522Z,108.72
2023-02-17T00:24:33.159Z,98.70
2023-02-17T00:27:01.041Z,103.53
2023-02-17T00:29:28.626Z,116.20
2023-02-17T00:31:56.872Z,111.72
2023-02-17T00:34:25.200Z,106.45
2023-02-17T00:36:53.310Z,106.00
2023-02-17T00:39:20.985Z,112.38
2023-02-17T00:41:50.141Z,109.68
2023-02-17T00:44:21.177Z,117.47
2023-02-17T00:46:49.580Z,116.60
2023-02-17T00:49:22.612Z,110.88
2023-02-17T00:51:51.342Z,113.30
2023-02-17T00:54:19.628Z,108.50
2023-02-17T00:56:47.564Z,107.57
2023-02-17T00:59:15.116Z,112.43
2023-02-17T01:01:43.035Z,115.35
2023-02-17T01:04:10.862Z,115.03
2023-02-17T01:06:40.533Z,112.53
2023-02-17T01:09:13.264Z,110.95
2023-02-17T01:11:42.873Z,108.32
2023-02-17T01:14:14.171Z,106.75
2023-02-17T01:16:47.994Z,115.95
2023-02-17T01:19:19.206Z,111.22
2023-02-17T01:21:49.291Z,109.70
2023-02-17T01:24:16.882Z,109.95
2023-02-17T01:26:44.719Z,115.03
2023-02-17T01:29:12.365Z,105.97
2023-02-17T01:31:41.178Z,116.63
2023-02-17T01:34:12.563Z,113.55
2023-02-17T01:36:40.479Z,122.38
2023-02-17T01:39:14.622Z,116.93
2023-02-17T01:41:43.604Z,117.32
2023-02-17T01:44:23.149Z,116.97
2023-02-17T01:46:56.376Z,120.60
2023-02-17T01:49:39.718Z,115.60
2023-02-17T01:52:25.286Z,111.75
2023-02-17T01:55:01.493Z,116.63
2023-02-17T01:57:34.880Z,114.20
2023-02-17T02:00:03.831Z,104.93
2023-02-17T02:02:42.757Z,109.72
2023-02-17T02:05:15.203Z,112.95
2023-02-17T02:07:47.612Z,115.25
2023-02-17T02:12:44.750Z,115.40
2023-02-17T02:15:26.386Z,113.72
2023-02-17T02:18:21.220Z,114.10
2023-02-17T02:21:38.803Z,114.15
2023-02-17T02:24:29.137Z,111.15
2023-02-17T02:27:27.368Z,109.38
2023-02-17T02:30:03.931Z,118.63
2023-02-17T02:32:49.361Z,118.07
2023-02-17T02:35:34.399Z,106.45
2023-02-17T02:38:22.754Z,117.80
2023-02-17T02:40:58.235Z,104.93
2023-02-17T02:43:27.123Z,110.82
2023-02-17T02:45:55.196Z,111.23
2023-02-17T02:48:22.711Z,118.70
2023-02-17T02:51:04.908Z,112.85
2023-02-17T02:53:44.861Z,110.75
2023-02-17T02:56:36.595Z,113.47
2023-02-17T02:59:28.602Z,119.68
2023-02-17T03:02:15.662Z,125.82
2023-02-17T03:04:48.981Z,112.20
2023-02-17T03:07:30.190Z,110.75
2023-02-17T03:10:00.781Z,115.22
2023-02-17T03:12:29.424Z,107.15
2023-02-17T03:15:13.891Z,109.10
2023-02-17T03:17:42.194Z,104.40
2023-02-17T03:20:11.302Z,100.78
2023-02-17T03:25:09.364Z,103.72
2023-02-17T03:27:37.332Z,108.95
2023-02-17T03:30:06.631Z,112.97
2023-02-17T03:32:35.354Z,110.60
2023-02-17T03:35:04.307Z,107.53
2023-02-17T03:37:32.463Z,112.90
2023-02-17T03:40:00.220Z,113.47
2023-02-17T03:42:28.057Z,112.07
2023-02-17T03:44:55.546Z,104.95
2023-02-17T03:47:23.452Z,104.10
2023-02-17T03:49:52.700Z,102.70
2023-02-17T03:52:21.477Z,97.65
2023-02-17T03:54:49.086Z,95.32
2023-02-17T03:57:16.875Z,97.20
2023-02-17T03:59:44.368Z,108.63
2023-02-17T04:02:12.261Z,95.78
2023-02-17T04:04:39.867Z,93.85
2023-02-17T04:07:07.991Z,87.25
2023-02-17T04:09:35.535Z,87.78
2023-02-17T04:12:03.529Z,89.15
2023-02-17T04:14:31.147Z,85.32
2023-02-17T04:16:59.008Z,80.40
2023-02-17T04:19:26.857Z,92.13
2023-02-17T04:21:54.901Z,91.00
2023-02-17T04:24:22.411Z,86.30
2023-02-17T04:26:50.298Z,85.05
2023-02-17T04:29:17.885Z,87.00
2023-02-17T04:31:45.860Z,93.55
2023-02-17T04:34:13.352Z,86.07
2023-02-17T04:36:43.420Z,95.03
2023-02-17T04:39:11.788Z,82.32
2023-02-17T04:41:40.061Z,89.80
2023-02-17T04:44:07.602Z,87.18
2023-02-17T04:46:35.384Z,86.20
2023-02-17T04:49:03.052Z,97.60
2023-02-17T04:51:31.129Z,93.82
2023-02-17T04:53:58.682Z,91.65
2023-02-17T04:56:26.657Z,94.75
2023-02-17T04:58:54.135Z,85.65
2023-02-17T05:01:22.072Z,93.78
2023-02-17T05:03:49.727Z,86.93
2023-02-17T05:06:17.611Z,98.43
2023-02-17T05:08:45.175Z,88.13
2023-02-17T05:11:13.039Z,85.93
2023-02-17T05:13:40.950Z,88.30
2023-02-17T05:16:09.067Z,91.32
2023-02-17T05:18:36.902Z,94.00
2023-02-17T05:21:05.066Z,88.45
2023-02-17T05:23:32.608Z,88.65
2023-02-17T05:26:00.384Z,89.53
2023-02-17T05:28:27.906Z,90.90
2023-02-17T05:30:55.707Z,95.57
2023-02-17T05:33:23.250Z,89.97
2023-02-17T05:35:51.098Z,101.15
2023-02-17T05:38:18.701Z,98.88
2023-02-17T05:40:46.478Z,96.22
2023-02-17T05:43:13.936Z,85.97
2023-02-17T05:45:56.749Z,95.25
2023-02-17T05:48:26.407Z,92.25
2023-02-17T05:50:54.264Z,90.35
2023-02-17T05:53:21.707Z,97.00
2023-02-17T05:55:49.461Z,90.07
2023-02-17T05:58:17.073Z,100.30
2023-02-17T06:00:46.139Z,96.28
2023-02-17T06:03:13.892Z,90.35
2023-02-17T06:05:42.058Z,95.78
2023-02-17T06:08:09.637Z,91.35
2023-02-17T06:10:37.527Z,96.13
2023-02-17T06:13:05.844Z,107.40
2023-02-17T06:15:34.038Z,110.18
2023-02-17T06:18:01.651Z,107.47
2023-02-17T06:20:29.496Z,105.50
2023-02-17T06:22:57.072Z,112.60
2023-02-17T06:25:24.867Z,107.93
2023-02-17T06:27:53.683Z,111.43
2023-02-17T06:30:22.016Z,109.32
2023-02-17T06:32:50.119Z,106.40
2023-02-17T06:35:18.090Z,108.75
2023-02-17T06:37:45.638Z,107.65
2023-02-17T06:40:14.074Z,107.15
2023-02-17T06:42:41.592Z,103.85
2023-02-17T06:45:09.951Z,105.28
2023-02-17T06:47:37.600Z,107.30
2023-02-17T06:50:06.433Z,110.07
2023-02-17T06:52:34.899Z,106.53
2023-02-17T06:55:02.949Z,107.47
2023-02-17T06:57:30.787Z,107.75
2023-02-17T06:59:58.615Z,103.10
2023-02-17T07:02:27.539Z,109.13
2023-02-17T07:04:55.456Z,109.60
2023-02-17T07:07:22.938Z,114.68
2023-02-17T07:09:50.764Z,108.75
2023-02-17T07:12:18.361Z,96.65
2023-02-17T07:14:46.312Z,101.65
2023-02-17T07:17:13.952Z,103.80
2023-02-17T07:19:41.804Z,109.72
2023-02-17T07:22:09.388Z,99.57
2023-02-17T07:24:37.249Z,99.18
2023-02-17T07:27:09.067Z,95.85
2023-02-17T07:29:38.872Z,86.10
2023-02-17T07:32:06.412Z,81.22
2023-02-17T07:34:34.342Z,83.93
2023-02-17T07:37:01.851Z,77.57
2023-02-17T07:39:29.690Z,83.53
2023-02-17T07:42:01.109Z,85.25
2023-02-17T07:44:29.048Z,99.22
2023-02-17T07:46:56.786Z,97.95
2023-02-17T07:49:24.767Z,84.20
2023-02-17T07:51:52.385Z,84.85
2023-02-17T07:54:20.193Z,77.40
2023-02-17T07:56:47.799Z,90.25
2023-02-17T07:59:15.779Z,85.95
2023-02-17T08:01:43.506Z,81.55
2023-02-17T08:04:12.411Z,83.22
2023-02-17T08:06:40.450Z,84.53
2023-02-17T08:09:29.051Z,81.55
2023-02-17T08:12:15.101Z,84.65
2023-02-17T08:14:42.980Z,90.95
2023-02-17T08:17:10.875Z,80.32
2023-02-17T08:19:48.028Z,77.28
2023-02-17T08:22:17.813Z,80.32
2023-02-17T08:24:45.840Z,67.20
2023-02-17T08:27:15.575Z,68.05
2023-02-17T08:29:44.183Z,62.75
2023-02-17T08:32:15.197Z,59.38
2023-02-17T08:34:43.507Z,56.95
2023-02-17T08:37:12.487Z,56.42
2023-02-17T08:39:40.468Z,57.05
2023-02-17T08:42:08.202Z,55.88
2023-02-17T08:44:37.486Z,52.22
2023-02-17T08:47:06.766Z,54.72
2023-02-17T08:49:38.618Z,56.25
2023-02-17T08:52:06.871Z,54.75
2023-02-17T08:54:34.932Z,52.90
2023-02-17T08:57:02.509Z,55.35
2023-02-17T08:59:30.400Z,52.50
2023-02-17T09:01:58.556Z,46.95
2023-02-17T09:04:26.683Z,52.88
2023-02-17T09:06:58.741Z,55.55
2023-02-17T09:09:27.539Z,53.85
2023-02-17T09:11:58.244Z,46.07
2023-02-17T09:14:26.872Z,44.97
2023-02-17T09:16:57.439Z,52.20
2023-02-17T09:19:26.780Z,51.60
2023-02-17T09:21:54.455Z,48.85
2023-02-17T09:24:22.671Z,43.05
2023-02-17T09:26:50.301Z,46.40
2023-02-17T09:29:18.223Z,40.63
2023-02-17T09:31:46.275Z,40.58
2023-02-17T09:34:14.893Z,40.83
2023-02-17T09:36:44.435Z,46.38
2023-02-17T09:39:15.024Z,44.15
2023-02-17T09:41:52.113Z,38.78
2023-02-17T09:44:24.495Z,47.83
2023-02-17T09:47:03.498Z,44.17
2023-02-17T09:49:42.534Z,35.13
2023-02-17T09:52:49.156Z,40.03
2023-02-17T09:55:41.329Z,39.42
2023-02-17T09:58:24.201Z,42.28
2023-02-17T10:00:59.341Z,42.58
2023-02-17T10:03:45.041Z,41.35
2023-02-17T10:06:24.877Z,44.70
2023-02-17T10:09:22.186Z,45.97
2023-02-17T10:12:03.991Z,45.42
2023-02-17T10:14:41.652Z,48.95
2023-02-17T10:17:37.905Z,46.78
2023-02-17T10:20:21.137Z,52.83
2023-02-17T10:23:00.347Z,54.08
2023-02-17T10:26:21.591Z,49.90
2023-02-17T10:29:49.549Z,54.58
2023-02-17T10:32:25.685Z,44.22
2023-02-17T10:35:23.036Z,44.75
2023-02-17T10:38:14.556Z,48.47
2023-02-17T10:40:45.475Z,37.40
2023-02-17T10:43:21.633Z,43.65
2023-02-17T10:45:51.457Z,47.00
2023-02-17T10:50:58.663Z,44.97
2023-02-17T10:53:31.969Z,41.67
2023-02-17T10:56:20.267Z,47.58
2023-02-17T10:59:06.562Z,44.35
2023-02-17T11:01:36.446Z,48.35
2023-02-17T11:04:11.584Z,52.20
2023-02-17T11:06:50.996Z,40.70
2023-02-17T11:09:32.774Z,46.22
2023-02-17T11:12:03.998Z,45.38
2023-02-17T11:14:33.888Z,45.05
2023-02-17T11:17:13.277Z,45.58
2023-02-17T11:19:40.854Z,38.85
2023-02-17T11:22:35.380Z,38.20
2023-02-17T11:25:20.403Z,38.53
2023-02-17T11:27:57.934Z,44.20
2023-02-17T11:30:28.180Z,40.25
2023-02-17T11:32:56.458Z,40.20
2023-02-17T11:35:36.070Z,49.97
2023-02-17T11:38:22.929Z,44.95
2023-02-17T11:41:07.565Z,50.72
2023-02-17T11:43:36.754Z,41.95
2023-02-17T11:46:35.238Z,39.50
2023-02-17T11:49:43.544Z,41.10
2023-02-17T11:52:29.202Z,41.58
2023-02-17T11:55:36.176Z,56.72
2023-02-17T11:58:21.497Z,37.92
2023-02-17T12:01:28.134Z,41.63
2023-02-17T12:04:10.368Z,36.60
2023-02-17T12:07:22.704Z,41.53
2023-02-17T12:10:20.882Z,32.92
2023-02-17T12:13:13.917Z,29.88
2023-02-17T12:16:13.265Z,30.33
2023-02-17T12:19:38.826Z,29.55
2023-02-17T12:22:12.134Z,23.48
2023-02-17T12:25:15.086Z,28.25
2023-02-17T12:28:27.040Z,32.67
2023-02-17T12:31:11.415Z,25.63
2023-02-17T12:34:11.146Z,28.27
2023-02-17T12:36:40.550Z,25.67
2023-02-17T12:41:59.645Z,27.17
2023-02-17T12:44:34.403Z,22.77
2023-02-17T12:47:18.885Z,27.23
2023-02-17T12:50:22.592Z,18.52
2023-02-17T12:52:56.622Z,18.50
2023-02-17T12:55:48.953Z,14.82
2023-02-17T12:58:27.781Z,13.85
2023-02-17T13:01:09.182Z,11.93
2023-02-17T13:03:37.716Z,14.18
2023-02-17T13:06:24.276Z,15.00
2023-02-17T13:09:36.479Z,15.13
2023-02-17T13:12:22.828Z,16.83
2023-02-17T13:14:55.685Z,10.65
2023-02-17T13:17:23.080Z,15.77
2023-02-17T13:20:07.690Z,13.70
2023-02-17T13:22:35.451Z,14.98
2023-02-17T13:25:03.384Z,17.42
2023-02-17T13:27:36.600Z,12.85
2023-02-17T13:30:09.560Z,11.02
2023-02-17T13:32:38.967Z,9.88
2023-02-17T13:35:27.257Z,8.18
2023-02-17T13:37:55.641Z,13.23
2023-02-17T13:40:24.295Z,11.02
2023-02-17T13:42:57.487Z,10.53
2023-02-17T13:45:58.334Z,16.25
2023-02-17T13:48:33.666Z,10.07
2023-02-17T13:51:07.161Z,12.73
2023-02-17T13:53:42.546Z,9.50
2023-02-17T13:56:23.781Z,12.10
2023-02-17T13:58:51.323Z,11.52
2023-02-17T14:01:27.321Z,8.95
2023-02-17T14:03:56.754Z,11.52
2023-02-17T14:06:37.777Z,8.77
2023-02-17T14:09:33.884Z,10.68
2023-02-17T14:12:06.178Z,9.50
2023-02-17T14:14:38.217Z,10.07
2023-02-17T14:17:15.202Z,9.98
2023-02-17T14:19:52.082Z,10.73
2023-02-17T14:22:32.721Z,10.93
2023-02-17T14:25:12.499Z,8.73
2023-02-17T14:27:44.434Z,10.02
2023-02-17T14:30:32.809Z,11.30
2023-02-17T14:33:22.057Z,13.70
2023-02-17T14:35:59.391Z,15.25
2023-02-17T14:38:32.563Z,14.05
2023-02-17T14:41:01.277Z,14.65
2023-02-17T14:43:29.562Z,11.13
2023-02-17T14:45:58.149Z,13.35
2023-02-17T14:48:28.020Z,12.65
2023-02-17T14:50:57.932Z,9.85
2023-02-17T14:53:30.746Z,9.50
2023-02-17T14:56:18.998Z,14.48
2023-02-17T14:58:47.640Z,11.23
2023-02-17T15:01:18.339Z,11.73
2023-02-17T15:03:47.403Z,21.50
2023-02-17T15:06:20.862Z,9.88
2023-02-17T15:08:49.689Z,15.07
2023-02-17T15:11:30.336Z,9.88
2023-02-17T15:13:58.422Z,14.85
2023-02-17T15:16:26.400Z,11.57
2023-02-17T15:18:54.372Z,11.20
2023-02-17T15:21:24.711Z,9.93
2023-02-17T15:23:54.045Z,10.63
2023-02-17T15:26:22.953Z,14.45
2023-02-17T15:31:22.042Z,14.73
2023-02-17T15:33:59.167Z,13.93
2023-02-17T15:36:28.672Z,18.08
2023-02-17T15:38:56.559Z,13.93
2023-02-17T15:41:30.536Z,15.75
2023-02-17T15:44:03.589Z,15.68
2023-02-17T15:46:33.722Z,16.02
2023-02-17T15:49:01.628Z,16.38
2023-02-17T15:51:29.081Z,18.98
2023-02-17T15:53:57.080Z,17.25
2023-02-17T15:56:31.919Z,17.75
2023-02-17T15:59:17.835Z,15.60
2023-02-17T16:01:45.615Z,25.80
2023-02-17T16:04:15.068Z,21.00
2023-02-17T16:06:43.430Z,25.67
2023-02-17T16:09:12.281Z,25.02
2023-02-17T16:11:54.547Z,28.17
2023-02-17T16:14:32.708Z,39.15
2023-02-17T16:17:01.055Z,37.63
2023-02-17T16:19:28.944Z,39.08
2023-02-17T16:21:56.537Z,37.15
2023-02-17T16:24:24.278Z,46.58
2023-02-17T16:26:51.879Z,40.55
2023-02-17T16:29:23.292Z,65.78
2023-02-17T16:31:51.048Z,93.97
2023-02-17T16:34:22.807Z,82.90
2023-02-17T16:36:57.212Z,85.18
2023-02-17T16:39:25.432Z,80.38
2023-02-17T16:41:53.049Z,59.08
2023-02-17T16:44:23.380Z,42.42
2023-02-17T16:46:54.530Z,41.28
2023-02-17T16:49:33.828Z,51.58
2023-02-17T16:52:18.941Z,62.60
2023-02-17T16:54:46.827Z,66.32
2023-02-17T16:57:19.390Z,61.78
2023-02-17T16:59:48.099Z,75.93
2023-02-17T17:02:16.275Z,80.35
2023-02-17T17:04:45.338Z,63.13
2023-02-17T17:07:16.175Z,78.60
2023-02-17T17:09:48.723Z,67.35
2023-02-17T17:12:24.190Z,52.63
2023-02-17T17:14:52.280Z,45.08
2023-02-17T17:17:20.289Z,43.45
2023-02-17T17:19:48.404Z,33.97
2023-02-17T17:22:16.820Z,37.13
2023-02-17T17:24:44.655Z,36.55
2023-02-17T17:27:12.222Z,34.78
2023-02-17T17:29:39.997Z,39.63
2023-02-17T17:32:07.596Z,26.88
2023-02-17T17:34:35.710Z,29.65
2023-02-17T17:37:03.235Z,22.92
2023-02-17T17:39:31.036Z,26.75
2023-02-17T17:41:58.851Z,33.63
2023-02-17T17:44:28.757Z,22.67
2023-02-17T17:46:56.179Z,27.02
2023-02-17T17:49:25.503Z,27.20
2023-02-17T17:51:52.946Z,30.35
2023-02-17T17:54:20.858Z,35.70
2023-02-17T17:56:48.418Z,35.15
2023-02-17T17:59:16.145Z,34.75
2023-02-17T18:01:45.836Z,37.33
2023-02-17T18:04:14.118Z,40.35
2023-02-17T18:06:51.211Z,42.50
2023-02-17T18:09:32.105Z,45.50
2023-02-17T18:12:11.246Z,48.50
2023-02-17T18:14:41.971Z,44.88
2023-02-17T18:17:27.850Z,47.08
2023-02-17T18:19:56.030Z,45.85
2023-02-17T18:22:24.467Z,51.88
2023-02-17T18:24:52.217Z,63.38
2023-02-17T18:27:19.686Z,57.75
2023-02-17T18:29:47.572Z,42.35
2023-02-17T18:32:15.079Z,37.50
2023-02-17T18:34:42.843Z,45.33
2023-02-17T18:37:10.334Z,34.38
2023-02-17T18:39:38.134Z,38.10
2023-02-17T18:42:05.947Z,36.25
2023-02-17T18:44:34.263Z,38.65
2023-02-17T18:47:01.834Z,38.17
2023-02-17T18:49:30.340Z,30.33
2023-02-17T18:51:57.826Z,36.40
2023-02-17T18:54:25.569Z,43.38
2023-02-17T18:56:53.141Z,41.03
2023-02-17T18:59:21.003Z,34.83
2023-02-17T19:01:48.541Z,36.10
2023-02-17T19:04:16.618Z,29.55
2023-02-17T19:06:44.265Z,30.30
2023-02-17T19:09:12.854Z,30.40
2023-02-17T19:11:40.420Z,38.08
2023-02-17T19:14:09.154Z,27.98
2023-02-17T19:16:38.532Z,35.30
2023-02-17T19:19:06.608Z,32.63
2023-02-17T19:21:36.289Z,36.35
2023-02-17T19:24:05.111Z,62.28
2023-02-17T19:26:35.095Z,77.73
2023-02-17T19:29:03.880Z,42.25
2023-02-17T19:31:31.583Z,34.75
2023-02-17T19:34:00.339Z,34.00
2023-02-17T19:36:27.951Z,32.20
2023-02-17T19:39:01.406Z,24.00
2023-02-17T19:41:31.104Z,27.30
2023-02-17T19:43:59.184Z,26.55
2023-02-17T19:46:26.860Z,28.50
2023-02-17T19:48:54.835Z,28.88
2023-02-17T19:51:22.385Z,43.15
2023-02-17T19:53:50.254Z,39.17
2023-02-17T19:56:20.481Z,40.72
2023-02-17T19:58:49.389Z,27.30
2023-02-17T20:01:24.809Z,31.30
2023-02-17T20:03:55.218Z,26.77
2023-02-17T20:06:35.127Z,28.33
2023-02-17T20:09:11.761Z,28.77
2023-02-17T20:11:39.373Z,25.55
2023-02-17T20:14:07.406Z,23.02
2023-02-17T20:16:35.011Z,25.00
2023-02-17T20:19:04.509Z,28.70
2023-02-17T20:21:38.576Z,28.23
2023-02-17T20:24:06.825Z,26.17
2023-02-17T20:26:39.723Z,25.30
2023-02-17T20:29:08.209Z,21.75
2023-02-17T20:31:38.150Z,22.88
2023-02-17T20:34:16.434Z,25.15
2023-02-17T20:36:43.941Z,21.85
2023-02-17T20:39:12.186Z,27.48
2023-02-17T20:41:39.641Z,25.85
2023-02-17T20:44:08.037Z,33.40
2023-02-17T20:46:35.703Z,48.67
2023-02-17T20:49:03.704Z,41.25
2023-02-17T20:51:31.179Z,34.45
2023-02-17T20:53:59.033Z,48.53
2023-02-17T20:56:37.369Z,39.67
2023-02-17T20:59:06.796Z,33.60
2023-02-17T21:01:34.304Z,34.50
2023-02-17T21:04:02.549Z,33.92
2023-02-17T21:06:38.098Z,33.28
2023-02-17T21:09:12.422Z,27.00
2023-02-17T21:11:41.515Z,31.05
2023-02-17T21:14:10.773Z,33.72
2023-02-17T21:16:39.066Z,30.63
2023-02-17T21:19:07.980Z,32.20
2023-02-17T21:21:36.000Z,35.53
2023-02-17T21:24:04.888Z,35.63
2023-02-17T21:26:33.739Z,25.88
2023-02-17T21:29:01.761Z,33.20
2023-02-17T21:31:29.638Z,25.95
2023-02-17T21:34:00.042Z,33.05
2023-02-17T21:36:29.659Z,24.83
2023-02-17T21:38:59.366Z,26.67
2023-02-17T21:41:29.027Z,31.63
2023-02-17T21:44:15.813Z,29.58
2023-02-17T21:46:44.299Z,35.42
2023-02-17T21:49:12.798Z,27.17
2023-02-17T21:51:41.029Z,26.95
2023-02-17T21:54:10.313Z,34.77
2023-02-17T21:56:38.081Z,34.20
2023-02-17T21:59:06.494Z,36.25
2023-02-17T22:01:34.663Z,30.40
2023-02-17T22:04:03.092Z,23.00
2023-02-17T22:06:35.344Z,24.15
2023-02-17T22:09:06.683Z,28.60
2023-02-17T22:11:38.576Z,25.48
2023-02-17T22:14:20.376Z,32.90
2023-02-17T22:16:49.405Z,31.55
2023-02-17T22:19:23.415Z,24.88
2023-02-17T22:21:52.829Z,27.63
2023-02-17T22:24:27.329Z,35.15
2023-02-17T22:26:56.700Z,22.30
2023-02-17T22:29:25.621Z,32.40
2023-02-17T22:31:56.421Z,31.60
2023-02-17T22:34:27.669Z,33.78
2023-02-17T22:36:57.160Z,27.23
2023-02-17T22:39:25.313Z,27.23
2023-02-17T22:41:52.990Z,27.75
2023-02-17T22:44:21.531Z,35.20
2023-02-17T22:46:49.012Z,26.90
2023-02-17T22:49:16.817Z,26.13
2023-02-17T22:51:45.017Z,28.38
2023-02-17T22:54:12.888Z,28.02
2023-02-17T22:56:40.462Z,33.00
2023-02-17T22:59:08.988Z,30.90
2023-02-17T23:01:37.713Z,24.55
2023-02-17T23:04:07.287Z,31.58
2023-02-17T23:09:08.132Z,30.63
2023-02-17T23:11:55.563Z,27.85
2023-02-17T23:14:27.966Z,27.77
2023-02-17T23:17:00.722Z,30.85
2023-02-17T23:19:30.093Z,28.38
2023-02-17T23:22:02.511Z,25.52
2023-02-17T23:24:30.634Z,23.55
2023-02-17T23:27:00.797Z,23.60
2023-02-17T23:29:30.851Z,23.75
2023-02-17T23:34:29.124Z,21.35
2023-02-17T23:36:58.643Z,21.75
2023-02-17T23:39:26.666Z,28.63
2023-02-17T23:41:54.144Z,22.05
2023-02-17T23:44:22.076Z,25.80
2023-02-17T23:46:49.545Z,28.10
2023-02-17T23:49:18.168Z,31.73
2023-02-17T23:51:47.006Z,25.20
2023-02-17T23:54:15.603Z,30.25
2023-02-17T23:56:43.365Z,25.02
2023-02-17T23:59:11.715Z,22.85
